createdAt,value
2023-03-19T00:01:09.899Z,97533.88
2023-03-19T00:03:38.097Z,97525.19
2023-03-19T00:06:06.718Z,97532.09
2023-03-19T00:08:34.830Z,97523.34
2023-03-19T00:11:07.646Z,97519.97
2023-03-19T00:13:37.120Z,97522.72
2023-03-19T00:16:06.034Z,97523.81
2023-03-19T00:18:34.977Z,97521.28
2023-03-19T00:21:03.091Z,97523.88
2023-03-19T00:23:31.424Z,97531.81
2023-03-19T00:25:59.499Z,97529.28
2023-03-19T00:28:28.168Z,97522.38
2023-03-19T00:30:57.817Z,97529.38
2023-03-19T00:33:26.788Z,97532.03
2023-03-19T00:35:55.585Z,97521.53
2023-03-19T00:38:23.702Z,97517.31
2023-03-19T00:40:51.842Z,97519.16
2023-03-19T00:43:20.166Z,97508.03
2023-03-19T00:45:48.374Z,97513.25
2023-03-19T00:48:18.528Z,97509.78
2023-03-19T00:50:46.840Z,97513.38
2023-03-19T00:53:14.969Z,97515.28
2023-03-19T00:55:43.212Z,97510.03
2023-03-19T00:58:11.650Z,97499.66
2023-03-19T01:00:41.343Z,97500.56
2023-03-19T01:03:11.019Z,97512.63
2023-03-19T01:05:40.606Z,97510.97
2023-03-19T01:08:08.804Z,97516.22
2023-03-19T01:10:37.520Z,97523.19
2023-03-19T01:13:06.917Z,97511.09
2023-03-19T01:15:37.555Z,97503.25
2023-03-19T01:18:06.224Z,97497.97
2023-03-19T01:20:34.938Z,97498.81
2023-03-19T01:23:04.693Z,97503.44
2023-03-19T01:25:32.845Z,97505.97
2023-03-19T01:28:06.077Z,97507.75
2023-03-19T01:30:34.419Z,97499.88
2023-03-19T01:33:22.552Z,97493.88
2023-03-19T01:36:05.588Z,97486.94
2023-03-19T01:38:46.530Z,97503.50
2023-03-19T01:41:17.317Z,97504.31
2023-03-19T01:43:45.883Z,97490.59
2023-03-19T01:46:28.571Z,97497.50
2023-03-19T01:49:15.767Z,97498.50
2023-03-19T01:51:49.745Z,97494.22
2023-03-19T01:54:33.680Z,97496.84
2023-03-19T01:57:28.848Z,97489.94
2023-03-19T02:00:30.108Z,97495.16
2023-03-19T02:03:02.200Z,97494.31
2023-03-19T02:05:54.419Z,97484.72
2023-03-19T02:08:26.391Z,97489.97
2023-03-19T02:10:56.569Z,97485.56
2023-03-19T02:13:25.015Z,97493.44
2023-03-19T02:15:53.662Z,97499.53
2023-03-19T02:18:22.531Z,97496.03
2023-03-19T02:20:55.403Z,97489.09
2023-03-19T02:23:32.183Z,97486.38
2023-03-19T02:26:08.619Z,97493.28
2023-03-19T02:28:40.041Z,97487.13
2023-03-19T02:31:09.073Z,97487.28
2023-03-19T02:33:37.434Z,97496.38
2023-03-19T02:36:09.306Z,97504.25
2023-03-19T02:38:39.419Z,97492.88
2023-03-19T02:41:10.459Z,97477.31
2023-03-19T02:43:43.255Z,97481.56
2023-03-19T02:46:14.392Z,97492.00
2023-03-19T02:48:42.783Z,97492.88
2023-03-19T02:51:10.956Z,97496.44
2023-03-19T02:53:39.130Z,97492.22
2023-03-19T02:56:09.307Z,97498.31
2023-03-19T02:58:37.417Z,97500.09
2023-03-19T03:01:06.406Z,97495.03
2023-03-19T03:03:34.571Z,97501.19
2023-03-19T03:06:02.632Z,97504.59
2023-03-19T03:08:30.793Z,97491.56
2023-03-19T03:10:58.859Z,97491.66
2023-03-19T03:13:28.368Z,97492.66
2023-03-19T03:15:56.662Z,97498.91
2023-03-19T03:18:24.825Z,97495.41
2023-03-19T03:20:53.843Z,97490.31
2023-03-19T03:23:22.934Z,97489.47
2023-03-19T03:25:52.214Z,97500.19
2023-03-19T03:28:20.633Z,97501.94
2023-03-19T03:30:50.294Z,97497.38
2023-03-19T03:33:18.561Z,97493.88
2023-03-19T03:35:46.922Z,97499.13
2023-03-19T03:38:15.697Z,97497.44
2023-03-19T03:40:44.071Z,97489.59
2023-03-19T03:43:12.336Z,97487.78
2023-03-19T03:45:41.788Z,97486.94
2023-03-19T03:48:11.590Z,97484.38
2023-03-19T03:50:39.746Z,97489.53
2023-03-19T03:53:12.187Z,97489.69
2023-03-19T03:55:41.203Z,97491.34
2023-03-19T03:58:09.399Z,97482.88
2023-03-19T04:00:37.568Z,97496.13
2023-03-19T04:03:06.008Z,97487.56
2023-03-19T04:05:36.521Z,97493.44
2023-03-19T04:08:04.896Z,97488.31
2023-03-19T04:10:33.586Z,97499.72
2023-03-19T04:13:01.874Z,97493.59
2023-03-19T04:15:32.195Z,97502.34
2023-03-19T04:18:01.851Z,97487.63
2023-03-19T04:20:30.243Z,97482.50
2023-03-19T04:22:59.786Z,97487.72
2023-03-19T04:25:27.919Z,97479.00
2023-03-19T04:27:58.499Z,97481.41
2023-03-19T04:30:29.112Z,97486.69
2023-03-19T04:32:57.646Z,97491.13
2023-03-19T04:35:26.565Z,97487.72
2023-03-19T04:37:54.841Z,97489.50
2023-03-19T04:40:25.181Z,97489.50
2023-03-19T04:42:53.775Z,97481.72
2023-03-19T04:45:33.159Z,97486.22
2023-03-19T04:48:02.432Z,97484.69
2023-03-19T04:50:32.427Z,97483.97
2023-03-19T04:53:01.583Z,97479.59
2023-03-19T04:55:32.560Z,97497.81
2023-03-19T04:58:06.739Z,97501.59
2023-03-19T05:00:37.548Z,97487.59
2023-03-19T05:03:07.230Z,97483.16
2023-03-19T05:05:39.221Z,97491.75
2023-03-19T05:08:09.807Z,97492.44
2023-03-19T05:10:39.642Z,97491.53
2023-03-19T05:13:08.711Z,97496.66
2023-03-19T05:15:44.414Z,97496.66
2023-03-19T05:18:14.098Z,97504.34
2023-03-19T05:20:45.614Z,97504.44
2023-03-19T05:23:23.320Z,97500.06
2023-03-19T05:26:01.782Z,97498.31
2023-03-19T05:28:48.813Z,97493.72
2023-03-19T05:31:20.645Z,97506.66
2023-03-19T05:33:52.423Z,97493.34
2023-03-19T05:36:20.665Z,97491.41
2023-03-19T05:38:56.675Z,97495.31
2023-03-19T05:41:32.239Z,97498.41
2023-03-19T05:44:05.034Z,97497.91
2023-03-19T05:46:44.484Z,97508.63
2023-03-19T05:49:12.865Z,97505.34
2023-03-19T05:51:41.153Z,97512.41
2023-03-19T05:54:09.893Z,97515.19
2023-03-19T05:56:47.696Z,97519.94
2023-03-19T05:59:33.372Z,97524.00
2023-03-19T06:02:30.761Z,97508.53
2023-03-19T06:05:14.434Z,97518.66
2023-03-19T06:07:43.396Z,97518.88
2023-03-19T06:10:19.305Z,97521.53
2023-03-19T06:12:51.623Z,97522.47
2023-03-19T06:15:52.358Z,97525.84
2023-03-19T06:18:27.891Z,97530.94
2023-03-19T06:20:56.970Z,97520.22
2023-03-19T06:23:25.255Z,97530.56
2023-03-19T06:25:53.849Z,97518.63
2023-03-19T06:28:25.470Z,97524.88
2023-03-19T06:30:55.596Z,97516.75
2023-03-19T06:34:01.929Z,97521.34
2023-03-19T06:36:40.860Z,97525.13
2023-03-19T06:39:11.893Z,97516.66
2023-03-19T06:41:40.586Z,97517.34
2023-03-19T06:44:17.190Z,97520.47
2023-03-19T06:46:45.553Z,97511.84
2023-03-19T06:49:13.671Z,97510.59
2023-03-19T06:51:41.816Z,97514.66
2023-03-19T06:54:09.909Z,97519.50
2023-03-19T06:56:38.064Z,97521.31
2023-03-19T06:59:06.284Z,97507.16
2023-03-19T07:01:36.041Z,97512.03
2023-03-19T07:04:04.166Z,97519.47
2023-03-19T07:06:33.704Z,97504.94
2023-03-19T07:09:01.814Z,97504.72
2023-03-19T07:11:30.046Z,97503.31
2023-03-19T07:13:58.143Z,97508.31
2023-03-19T07:16:26.411Z,97506.50
2023-03-19T07:18:56.292Z,97503.78
2023-03-19T07:21:24.794Z,97502.63
2023-03-19T07:23:52.870Z,97505.97
2023-03-19T07:26:21.115Z,97504.81
2023-03-19T07:28:49.246Z,97507.03
2023-03-19T07:31:18.100Z,97494.72
2023-03-19T07:33:46.224Z,97496.38
2023-03-19T07:36:15.778Z,97506.16
2023-03-19T07:38:43.926Z,97507.19
2023-03-19T07:41:15.707Z,97496.31
2023-03-19T07:43:47.162Z,97485.63
2023-03-19T07:46:15.406Z,97498.09
2023-03-19T07:48:43.765Z,97506.97
2023-03-19T07:51:12.311Z,97506.66
2023-03-19T07:53:42.002Z,97500.09
2023-03-19T07:56:10.780Z,97487.31
2023-03-19T07:58:38.957Z,97498.91
2023-03-19T08:01:07.213Z,97496.19
2023-03-19T08:03:35.511Z,97491.00
2023-03-19T08:06:03.960Z,97487.31
2023-03-19T08:08:34.949Z,97489.50
2023-03-19T08:11:04.720Z,97494.13
2023-03-19T08:13:32.807Z,97494.69
2023-03-19T08:16:01.101Z,97489.03
2023-03-19T08:18:29.328Z,97483.03
2023-03-19T08:20:57.521Z,97477.28
2023-03-19T08:23:25.602Z,97471.28
2023-03-19T08:25:54.728Z,97470.50
2023-03-19T08:28:24.849Z,97460.22
2023-03-19T08:30:53.020Z,97475.28
2023-03-19T08:33:21.142Z,97481.84
2023-03-19T08:35:49.431Z,97475.66
2023-03-19T08:38:17.792Z,97480.34
2023-03-19T08:40:45.902Z,97482.72
2023-03-19T08:43:16.350Z,97491.81
2023-03-19T08:45:45.912Z,97497.28
2023-03-19T08:48:13.990Z,97494.63
2023-03-19T08:50:42.111Z,97487.50
2023-03-19T08:53:10.231Z,97486.97
2023-03-19T08:55:38.410Z,97499.75
2023-03-19T08:58:06.747Z,97491.66
2023-03-19T09:00:35.032Z,97483.81
2023-03-19T09:03:04.922Z,97481.88
2023-03-19T09:05:33.036Z,97487.63
2023-03-19T09:08:01.126Z,97471.38
2023-03-19T09:10:29.335Z,97480.06
2023-03-19T09:12:57.453Z,97481.25
2023-03-19T09:15:25.795Z,97488.78
2023-03-19T09:17:53.894Z,97486.66
2023-03-19T09:20:23.651Z,97478.59
2023-03-19T09:22:51.782Z,97476.06
2023-03-19T09:25:19.979Z,97474.75
2023-03-19T09:27:48.251Z,97469.41
2023-03-19T09:30:16.697Z,97471.03
2023-03-19T09:32:44.846Z,97470.91
2023-03-19T09:35:12.982Z,97465.97
2023-03-19T09:37:42.523Z,97466.41
2023-03-19T09:40:22.360Z,97465.53
2023-03-19T09:43:07.714Z,97455.34
2023-03-19T09:45:36.211Z,97446.84
2023-03-19T09:48:07.700Z,97455.47
2023-03-19T09:50:37.677Z,97458.97
2023-03-19T09:53:14.327Z,97477.28
2023-03-19T09:55:45.697Z,97456.47
2023-03-19T09:58:19.940Z,97462.19
2023-03-19T10:00:51.222Z,97455.94
2023-03-19T10:03:37.036Z,97442.66
2023-03-19T10:06:19.217Z,97445.25
2023-03-19T10:09:17.982Z,97439.47
2023-03-19T10:11:57.333Z,97448.63
2023-03-19T10:14:49.381Z,97450.56
2023-03-19T10:17:22.187Z,97440.59
2023-03-19T10:19:54.734Z,97442.53
2023-03-19T10:22:27.419Z,97428.63
2023-03-19T10:24:58.644Z,97433.66
2023-03-19T10:27:29.773Z,97439.69
2023-03-19T10:29:58.065Z,97427.47
2023-03-19T10:32:36.314Z,97433.78
2023-03-19T10:35:10.342Z,97433.28
2023-03-19T10:37:39.715Z,97432.13
2023-03-19T10:40:18.989Z,97435.06
2023-03-19T10:43:02.963Z,97437.38
2023-03-19T10:45:33.302Z,97427.06
2023-03-19T10:48:03.988Z,97426.91
2023-03-19T10:50:35.728Z,97438.41
2023-03-19T10:53:23.552Z,97435.97
2023-03-19T10:55:56.057Z,97432.88
2023-03-19T10:58:27.415Z,97430.38
2023-03-19T11:00:59.090Z,97418.66
2023-03-19T11:03:38.727Z,97423.75
2023-03-19T11:06:18.351Z,97417.44
2023-03-19T11:08:54.106Z,97418.63
2023-03-19T11:11:33.354Z,97424.31
2023-03-19T11:14:08.935Z,97418.34
2023-03-19T11:16:49.594Z,97418.16
2023-03-19T11:19:21.736Z,97425.41
2023-03-19T11:22:04.878Z,97416.25
2023-03-19T11:24:34.029Z,97414.09
2023-03-19T11:27:03.519Z,97412.56
2023-03-19T11:29:32.323Z,97405.94
2023-03-19T11:32:21.662Z,97414.69
2023-03-19T11:34:55.305Z,97414.38
2023-03-19T11:37:32.670Z,97421.91
2023-03-19T11:40:11.380Z,97414.81
2023-03-19T11:42:55.321Z,97418.84
2023-03-19T11:45:33.045Z,97409.69
2023-03-19T11:48:14.610Z,97401.88
2023-03-19T11:50:51.309Z,97398.47
2023-03-19T11:53:26.355Z,97387.25
2023-03-19T11:56:03.651Z,97379.13
2023-03-19T11:58:53.521Z,97377.66
2023-03-19T12:01:39.289Z,97365.00
2023-03-19T12:04:51.938Z,97365.84
2023-03-19T12:07:31.737Z,97355.72
2023-03-19T12:10:17.911Z,97366.81
2023-03-19T12:12:57.692Z,97362.28
2023-03-19T12:15:32.647Z,97359.28
2023-03-19T12:18:13.729Z,97363.00
2023-03-19T12:20:56.232Z,97362.53
2023-03-19T12:23:44.941Z,97358.97
2023-03-19T12:26:24.487Z,97353.50
2023-03-19T12:29:00.948Z,97356.16
2023-03-19T12:31:42.487Z,97346.94
2023-03-19T12:34:23.911Z,97354.66
2023-03-19T12:36:55.976Z,97355.59
2023-03-19T12:39:27.420Z,97358.00
2023-03-19T12:41:58.929Z,97358.00
2023-03-19T12:44:34.265Z,97353.75
2023-03-19T12:47:08.195Z,97357.59
2023-03-19T12:49:41.356Z,97353.50
2023-03-19T12:52:17.646Z,97365.19
2023-03-19T12:54:50.105Z,97365.50
2023-03-19T12:57:23.940Z,97357.41
2023-03-19T13:00:00.481Z,97358.13
2023-03-19T13:02:35.707Z,97354.06
2023-03-19T13:05:11.047Z,97358.34
2023-03-19T13:07:50.569Z,97356.91
2023-03-19T13:10:20.819Z,97350.50
2023-03-19T13:12:51.503Z,97361.13
2023-03-19T13:15:28.760Z,97353.09
2023-03-19T13:18:06.184Z,97348.75
2023-03-19T13:20:52.290Z,97353.81
2023-03-19T13:23:25.762Z,97352.28
2023-03-19T13:25:57.895Z,97345.84
2023-03-19T13:28:30.060Z,97341.31
2023-03-19T13:31:03.206Z,97347.69
2023-03-19T13:33:35.209Z,97345.63
2023-03-19T13:36:05.842Z,97338.53
2023-03-19T13:38:41.031Z,97345.88
2023-03-19T13:41:40.251Z,97352.06
2023-03-19T13:44:29.291Z,97352.06
2023-03-19T13:46:57.746Z,97334.72
2023-03-19T13:49:33.760Z,97335.31
2023-03-19T13:52:18.779Z,97334.44
2023-03-19T13:54:47.729Z,97334.00
2023-03-19T13:57:23.028Z,97334.91
2023-03-19T13:59:52.360Z,97322.78
2023-03-19T14:02:49.432Z,97332.22
2023-03-19T14:05:22.812Z,97322.47
2023-03-19T14:07:56.494Z,97327.22
2023-03-19T14:10:28.815Z,97321.47
2023-03-19T14:13:09.501Z,97325.22
2023-03-19T14:15:42.991Z,97325.56
2023-03-19T14:18:20.123Z,97325.16
2023-03-19T14:21:00.839Z,97317.06
2023-03-19T14:23:41.132Z,97321.81
2023-03-19T14:26:18.269Z,97323.69
2023-03-19T14:28:55.982Z,97325.28
2023-03-19T14:31:31.349Z,97324.75
2023-03-19T14:34:20.806Z,97323.63
2023-03-19T14:36:57.391Z,97322.09
2023-03-19T14:39:28.651Z,97327.34
2023-03-19T14:42:04.643Z,97325.38
2023-03-19T14:45:19.295Z,97328.31
2023-03-19T14:48:08.720Z,97331.31
2023-03-19T14:50:57.385Z,97334.69
2023-03-19T14:53:35.691Z,97333.31
2023-03-19T14:56:14.321Z,97328.50
2023-03-19T14:58:54.454Z,97325.13
2023-03-19T15:01:24.911Z,97332.28
2023-03-19T15:03:57.630Z,97332.44
2023-03-19T15:06:26.542Z,97332.72
2023-03-19T15:09:00.980Z,97324.06
2023-03-19T15:12:02.152Z,97328.91
2023-03-19T15:14:48.512Z,97339.97
2023-03-19T15:17:24.956Z,97341.06
2023-03-19T15:19:54.880Z,97340.47
2023-03-19T15:22:28.011Z,97347.66
2023-03-19T15:25:07.783Z,97349.31
2023-03-19T15:27:36.228Z,97346.88
2023-03-19T15:30:20.527Z,97351.94
2023-03-19T15:33:03.830Z,97341.06
2023-03-19T15:35:39.756Z,97344.22
2023-03-19T15:38:14.145Z,97346.16
2023-03-19T15:40:45.243Z,97356.28
2023-03-19T15:43:14.916Z,97352.91
2023-03-19T15:45:48.037Z,97343.59
2023-03-19T15:48:22.788Z,97346.41
2023-03-19T15:50:56.721Z,97358.19
2023-03-19T15:53:29.400Z,97356.34
2023-03-19T15:56:03.176Z,97348.88
2023-03-19T15:58:38.936Z,97360.97
2023-03-19T16:01:13.025Z,97358.44
2023-03-19T16:03:44.819Z,97370.34
2023-03-19T16:06:25.036Z,97362.72
2023-03-19T16:08:58.056Z,97365.78
2023-03-19T16:11:36.909Z,97365.56
2023-03-19T16:14:15.256Z,97366.56
2023-03-19T16:16:51.356Z,97368.75
2023-03-19T16:19:32.573Z,97371.22
2023-03-19T16:22:04.766Z,97368.81
2023-03-19T16:24:38.160Z,97372.56
2023-03-19T16:27:14.237Z,97382.78
2023-03-19T16:29:45.350Z,97384.16
2023-03-19T16:32:26.475Z,97384.41
2023-03-19T16:34:59.357Z,97383.59
2023-03-19T16:37:35.236Z,97386.88
2023-03-19T16:40:29.410Z,97388.47
2023-03-19T16:43:10.827Z,97389.09
2023-03-19T16:45:54.112Z,97388.00
2023-03-19T16:48:23.865Z,97390.41
2023-03-19T16:50:55.508Z,97405.19
2023-03-19T16:53:27.787Z,97406.53
2023-03-19T16:55:59.119Z,97413.06
2023-03-19T16:58:35.462Z,97421.81
2023-03-19T17:01:07.526Z,97405.44
2023-03-19T17:03:37.316Z,97411.50
2023-03-19T17:06:11.491Z,97417.28
2023-03-19T17:08:45.440Z,97416.91
2023-03-19T17:11:23.876Z,97421.03
2023-03-19T17:13:57.602Z,97427.06
2023-03-19T17:16:29.089Z,97429.22
2023-03-19T17:18:59.822Z,97419.69
2023-03-19T17:21:30.282Z,97432.25
2023-03-19T17:24:04.784Z,97427.41
2023-03-19T17:26:34.567Z,97431.50
2023-03-19T17:29:08.808Z,97431.94
2023-03-19T17:31:39.470Z,97440.50
2023-03-19T17:34:14.812Z,97440.34
2023-03-19T17:36:47.061Z,97438.34
2023-03-19T17:39:17.364Z,97437.53
2023-03-19T17:41:48.466Z,97436.19
2023-03-19T17:44:20.639Z,97451.22
2023-03-19T17:46:54.651Z,97449.00
2023-03-19T17:49:27.020Z,97451.59
2023-03-19T17:51:58.510Z,97458.31
2023-03-19T17:54:29.101Z,97464.81
2023-03-19T17:57:00.770Z,97460.91
2023-03-19T17:59:36.865Z,97459.09
2023-03-19T18:02:23.414Z,97457.94
2023-03-19T18:04:54.592Z,97457.63
2023-03-19T18:07:28.109Z,97450.09
2023-03-19T18:09:58.987Z,97454.13
2023-03-19T18:12:30.601Z,97457.22
2023-03-19T18:15:03.661Z,97460.94
2023-03-19T18:17:38.037Z,97463.56
2023-03-19T18:20:09.639Z,97461.41
2023-03-19T18:22:39.735Z,97465.66
2023-03-19T18:25:18.497Z,97463.53
2023-03-19T18:27:48.805Z,97466.63
2023-03-19T18:30:31.359Z,97471.25
2023-03-19T18:33:05.038Z,97468.19
2023-03-19T18:35:39.806Z,97475.81
2023-03-19T18:38:17.128Z,97485.13
2023-03-19T18:40:50.929Z,97482.78
2023-03-19T18:43:21.028Z,97480.31
2023-03-19T18:45:54.959Z,97476.19
2023-03-19T18:48:27.919Z,97481.25
2023-03-19T18:50:59.257Z,97478.06
2023-03-19T18:53:29.668Z,97482.91
2023-03-19T18:56:00.543Z,97474.59
2023-03-19T18:58:32.835Z,97485.63
2023-03-19T19:01:05.170Z,97480.81
2023-03-19T19:03:41.666Z,97482.59
2023-03-19T19:06:14.306Z,97488.94
2023-03-19T19:08:47.230Z,97487.84
2023-03-19T19:11:18.379Z,97485.56
2023-03-19T19:13:56.020Z,97491.16
2023-03-19T19:16:34.406Z,97490.69
2023-03-19T19:19:05.024Z,97483.88
2023-03-19T19:21:37.095Z,97494.69
2023-03-19T19:24:07.695Z,97490.63
2023-03-19T19:26:41.119Z,97490.34
2023-03-19T19:29:15.981Z,97493.56
2023-03-19T19:31:48.785Z,97489.94
2023-03-19T19:34:19.230Z,97492.03
2023-03-19T19:36:51.225Z,97492.28
2023-03-19T19:39:23.222Z,97492.56
2023-03-19T19:41:57.303Z,97500.88
2023-03-19T19:44:27.928Z,97489.72
2023-03-19T19:46:59.637Z,97492.44
2023-03-19T19:49:31.769Z,97492.56
2023-03-19T19:52:05.268Z,97499.16
2023-03-19T19:54:36.810Z,97496.50
2023-03-19T19:57:19.711Z,97504.78
2023-03-19T19:59:52.027Z,97495.25
2023-03-19T20:02:29.500Z,97497.91
2023-03-19T20:05:00.536Z,97496.50
2023-03-19T20:07:32.886Z,97492.22
2023-03-19T20:10:03.005Z,97495.22
2023-03-19T20:12:34.573Z,97500.78
2023-03-19T20:15:05.444Z,97504.56
2023-03-19T20:17:37.479Z,97503.47
2023-03-19T20:20:16.727Z,97505.59
2023-03-19T20:22:54.920Z,97514.75
2023-03-19T20:25:29.657Z,97511.78
2023-03-19T20:28:03.868Z,97522.53
2023-03-19T20:30:37.799Z,97513.66
2023-03-19T20:33:10.259Z,97517.09
2023-03-19T20:35:40.666Z,97522.69
2023-03-19T20:38:15.419Z,97523.91
2023-03-19T20:40:49.439Z,97531.25
2023-03-19T20:43:32.293Z,97527.81
2023-03-19T20:46:05.130Z,97524.75
2023-03-19T20:48:37.980Z,97518.09
2023-03-19T20:51:12.145Z,97521.16
2023-03-19T20:53:42.317Z,97524.91
2023-03-19T20:56:16.479Z,97529.69
2023-03-19T20:58:47.562Z,97528.28
2023-03-19T21:01:20.369Z,97535.56
2023-03-19T21:03:51.241Z,97525.19
2023-03-19T21:06:24.499Z,97529.94
2023-03-19T21:08:59.228Z,97526.94
2023-03-19T21:11:39.408Z,97529.25
2023-03-19T21:14:12.741Z,97529.84
2023-03-19T21:16:42.547Z,97531.09
2023-03-19T21:19:13.514Z,97536.56
2023-03-19T21:21:43.802Z,97548.31
2023-03-19T21:24:19.565Z,97538.75
2023-03-19T21:26:49.251Z,97534.56
2023-03-19T21:29:27.930Z,97541.88
2023-03-19T21:31:58.360Z,97538.69
2023-03-19T21:34:29.960Z,97541.41
2023-03-19T21:37:00.358Z,97539.91
2023-03-19T21:39:32.403Z,97534.09
2023-03-19T21:42:02.916Z,97539.59
2023-03-19T21:44:32.448Z,97541.91
2023-03-19T21:47:01.595Z,97541.06
2023-03-19T21:49:31.265Z,97531.59
2023-03-19T21:51:59.415Z,97536.25
2023-03-19T21:54:27.502Z,97541.81
2023-03-19T21:56:55.634Z,97532.22
2023-03-19T21:59:28.204Z,97535.91
2023-03-19T22:01:56.426Z,97537.00
2023-03-19T22:04:24.557Z,97539.13
2023-03-19T22:06:54.563Z,97531.59
2023-03-19T22:09:22.636Z,97531.84
2023-03-19T22:11:50.838Z,97529.34
2023-03-19T22:14:20.988Z,97531.97
2023-03-19T22:16:52.745Z,97538.44
2023-03-19T22:19:21.294Z,97540.72
2023-03-19T22:21:49.587Z,97535.66
2023-03-19T22:24:19.145Z,97534.19
2023-03-19T22:26:49.644Z,97535.97
2023-03-19T22:29:21.031Z,97537.81
2023-03-19T22:31:50.189Z,97539.81
2023-03-19T22:34:20.662Z,97536.44
2023-03-19T22:36:49.077Z,97550.63
2023-03-19T22:39:18.812Z,97545.53
2023-03-19T22:41:49.397Z,97542.91
2023-03-19T22:44:24.449Z,97544.78
2023-03-19T22:46:52.925Z,97543.06
2023-03-19T22:49:21.315Z,97543.81
2023-03-19T22:51:49.422Z,97543.81
2023-03-19T22:54:18.853Z,97550.66
2023-03-19T22:56:46.938Z,97552.66
2023-03-19T22:59:15.077Z,97552.38
2023-03-19T23:01:46.377Z,97550.66
2023-03-19T23:04:25.355Z,97553.94
2023-03-19T23:06:55.017Z,97552.50
2023-03-19T23:09:26.193Z,97555.78
2023-03-19T23:11:55.012Z,97557.94
2023-03-19T23:14:30.211Z,97552.66
2023-03-19T23:17:01.006Z,97552.66
2023-03-19T23:19:31.206Z,97552.00
2023-03-19T23:22:00.236Z,97544.25
2023-03-19T23:24:31.151Z,97547.75
2023-03-19T23:27:01.221Z,97543.13
2023-03-19T23:29:31.706Z,97552.06
2023-03-19T23:31:59.796Z,97539.84
2023-03-19T23:34:28.787Z,97554.78
2023-03-19T23:36:58.090Z,97558.63
2023-03-19T23:39:26.876Z,97550.63
2023-03-19T23:41:59.126Z,97558.63
2023-03-19T23:44:29.274Z,97557.59
2023-03-19T23:47:02.415Z,97558.63
2023-03-19T23:49:33.363Z,97558.75
2023-03-19T23:52:04.534Z,97555.25
2023-03-19T23:54:34.635Z,97556.16
2023-03-19T23:57:06.733Z,97559.66
2023-03-19T23:59:37.997Z,97566.00
